Manitowoc, WI

7:18 PM CST on December 09, 2016 (GMT -0600)
Harvest Circle | | Change Station
Active Advisory: Winter Storm Watch

Elev 662 ft 44.10 °N, 87.71 °W | Updated 1 minute ago

Clear
Clear
20.5 °F
Feels Like 20 °F
N
0.0
Wind Variable Wind from North
Gusts 0.6 mph

Today
High -- | Low -- °F
--% Chance of Precip.
Yesterday
High -- | Low -- °F
Precip. -- in
Pressure 30.53 in
Visibility 10.0 miles
Clouds Clear
Windchill 20 °F
Dew Point 9 °F
Humidity 62%
Rainfall 0.00 in
Snow Depth Not available.
7:14 AM 4:12 PM
Waxing Gibbous, 79% visible
METAR KMTW 100056Z AUTO 29005KT 10SM CLR M07/M13 A3045 RMK AO2 SLP336 T10671128 FZRANO
Pressure 30.53 in
Visibility 10.0 miles
Clouds Clear
Windchill 20 °F
Dew Point 9 °F
Humidity 62%
Rainfall 0.00 in
Snow Depth Not available.
7:14 AM 4:12 PM
Waxing Gibbous, 79% visible
METAR KMTW 100056Z AUTO 29005KT 10SM CLR M07/M13 A3045 RMK AO2 SLP336 T10671128 FZRANO

10-Day Weather Forecast

Almanac

Astronomy

Dec. 09, 2016 Rise Set
Actual Time
Civil Twilight
Nautical Twilight
Astronomical Twilight
Moon
Length of Visible Light
Length of Day
Tomorrow will be .
, % of the Moon is Illuminated

Today's Extremes

State Highs State Lows

Community

WunderPhotos

Upload Photos

1,956,534 photos uploaded!

WunderBlog® & News

Nearby

Air Quality

  Air Quality AQ Index Pollutant
Not available.

Snow Depth

Station Depth Elevation

Earthquake Activity

City Distance Mag. Time & Date
Minimum magnitude displayed is 2.5.

Coastal Water Temperatures

Place Temperature

Stations

Nearby Weather Stations

Station Location Temp. Windchill Dew Point Humidity Wind Precip. Elev Updated Type
                   

Watches & Warnings

Winter Storm Watch
Issued: 12:11 PM CST Dec. 9, 2016 – National Weather Service

... Winter Storm Watch in effect from Saturday evening through
Sunday evening...

The National Weather Service in Green Bay has issued a Winter
Storm Watch... which is in effect from Saturday evening through
Sunday evening.

* Timing... early Saturday night through Sunday night. The heaviest
snow is expected to fall Sunday.

* Snow accumulations... 6 to 8 inches.

* Main impact... hazardous travel will develop Saturday night and
continue through Sunday. Slick and snow covered roads are
expected with reduced visibilities at times with any heavier
snow.

Precautionary/preparedness actions...

A Winter Storm Watch means there is a potential for significant
snow accumulations that may impact travel. Continue to monitor the
latest forecasts.